sensor_id;sensor_type;location;lat;lon;timestamp;temperature;humidity
66035;HTU21D;52805;51.074;5.842;2022-08-04T00:01:27;26.58;54.83
66035;HTU21D;52805;51.074;5.842;2022-08-04T00:04:04;26.58;54.87
66035;HTU21D;52805;51.074;5.842;2022-08-04T00:06:54;26.55;55.00
66035;HTU21D;52805;51.074;5.842;2022-08-04T00:10:20;26.52;54.99
66035;HTU21D;52805;51.074;5.842;2022-08-04T00:12:32;26.49;55.07
66035;HTU21D;52805;51.074;5.842;2022-08-04T00:14:59;26.47;55.11
66035;HTU21D;52805;51.074;5.842;2022-08-04T00:17:31;26.47;55.17
66035;HTU21D;52805;51.074;5.842;2022-08-04T00:20:02;26.46;55.16
66035;HTU21D;52805;51.074;5.842;2022-08-04T00:22:30;26.45;55.13
66035;HTU21D;52805;51.074;5.842;2022-08-04T00:24:57;26.41;55.21
66035;HTU21D;52805;51.074;5.842;2022-08-04T00:27:28;26.41;55.23
66035;HTU21D;52805;51.074;5.842;2022-08-04T00:29:55;26.37;55.36
66035;HTU21D;52805;51.074;5.842;2022-08-04T00:32:21;26.38;55.33
66035;HTU21D;52805;51.074;5.842;2022-08-04T00:34:49;26.34;55.42
66035;HTU21D;52805;51.074;5.842;2022-08-04T00:37:15;26.33;55.42
66035;HTU21D;52805;51.074;5.842;2022-08-04T00:39:41;26.31;55.51
66035;HTU21D;52805;51.074;5.842;2022-08-04T00:42:36;26.28;55.58
66035;HTU21D;52805;51.074;5.842;2022-08-04T00:47:43;26.22;55.64
66035;HTU21D;52805;51.074;5.842;2022-08-04T00:55:57;26.10;55.84
66035;HTU21D;52805;51.074;5.842;2022-08-04T01:06:34;25.93;56.43
66035;HTU21D;52805;51.074;5.842;2022-08-04T01:09:05;25.90;56.60
66035;HTU21D;52805;51.074;5.842;2022-08-04T01:12:04;25.84;56.74
66035;HTU21D;52805;51.074;5.842;2022-08-04T01:17:17;25.78;56.84
66035;HTU21D;52805;51.074;5.842;2022-08-04T01:20:05;25.77;56.81
66035;HTU21D;52805;51.074;5.842;2022-08-04T01:30:32;25.58;57.36
66035;HTU21D;52805;51.074;5.842;2022-08-04T01:33:03;25.58;57.40
66035;HTU21D;52805;51.074;5.842;2022-08-04T01:35:37;25.58;57.46
66035;HTU21D;52805;51.074;5.842;2022-08-04T01:38:34;25.58;57.41
66035;HTU21D;52805;51.074;5.842;2022-08-04T01:41:06;25.54;57.47
66035;HTU21D;52805;51.074;5.842;2022-08-04T01:43:35;25.51;57.48
66035;HTU21D;52805;51.074;5.842;2022-08-04T01:46:04;25.53;57.42
66035;HTU21D;52805;51.074;5.842;2022-08-04T01:48:31;25.53;57.40
66035;HTU21D;52805;51.074;5.842;2022-08-04T01:51:03;25.51;57.49
66035;HTU21D;52805;51.074;5.842;2022-08-04T01:53:33;25.47;57.57
66035;HTU21D;52805;51.074;5.842;2022-08-04T01:56:00;25.44;57.57
66035;HTU21D;52805;51.074;5.842;2022-08-04T01:58:33;25.44;57.55
66035;HTU21D;52805;51.074;5.842;2022-08-04T02:01:00;25.39;57.61
66035;HTU21D;52805;51.074;5.842;2022-08-04T02:03:31;25.34;57.76
66035;HTU21D;52805;51.074;5.842;2022-08-04T02:11:45;25.23;58.03
66035;HTU21D;52805;51.074;5.842;2022-08-04T02:14:19;25.20;58.15
66035;HTU21D;52805;51.074;5.842;2022-08-04T02:17:28;25.16;58.21
66035;HTU21D;52805;51.074;5.842;2022-08-04T02:22:34;25.10;58.37
66035;HTU21D;52805;51.074;5.842;2022-08-04T02:25:09;25.04;58.59
66035;HTU21D;52805;51.074;5.842;2022-08-04T02:28:01;24.98;58.80
66035;HTU21D;52805;51.074;5.842;2022-08-04T02:33:45;24.86;59.12
66035;HTU21D;52805;51.074;5.842;2022-08-04T02:36:30;24.83;59.28
66035;HTU21D;52805;51.074;5.842;2022-08-04T02:39:02;24.78;59.31
66035;HTU21D;52805;51.074;5.842;2022-08-04T02:41:30;24.74;59.44
66035;HTU21D;52805;51.074;5.842;2022-08-04T02:44:00;24.74;59.45
66035;HTU21D;52805;51.074;5.842;2022-08-04T02:46:28;24.73;59.48
66035;HTU21D;52805;51.074;5.842;2022-08-04T02:48:54;24.72;59.54
66035;HTU21D;52805;51.074;5.842;2022-08-04T02:51:44;24.70;59.57
66035;HTU21D;52805;51.074;5.842;2022-08-04T02:54:09;24.69;59.61
66035;HTU21D;52805;51.074;5.842;2022-08-04T02:56:37;24.66;59.71
66035;HTU21D;52805;51.074;5.842;2022-08-04T02:59:06;24.63;59.86
66035;HTU21D;52805;51.074;5.842;2022-08-04T03:01:33;24.58;59.91
66035;HTU21D;52805;51.074;5.842;2022-08-04T03:04:30;24.51;59.96
66035;HTU21D;52805;51.074;5.842;2022-08-04T03:12:27;24.40;60.33
66035;HTU21D;52805;51.074;5.842;2022-08-04T03:58:05;23.94;61.57
66035;HTU21D;52805;51.074;5.842;2022-08-04T04:00:56;23.90;61.57
66035;HTU21D;52805;51.074;5.842;2022-08-04T04:06:29;23.81;61.76
66035;HTU21D;52805;51.074;5.842;2022-08-04T04:16:56;23.81;61.79
66035;HTU21D;52805;51.074;5.842;2022-08-04T04:25:10;23.82;61.76
66035;HTU21D;52805;51.074;5.842;2022-08-04T04:30:11;23.76;61.94
66035;HTU21D;52805;51.074;5.842;2022-08-04T04:35:58;23.84;61.67
66035;HTU21D;52805;51.074;5.842;2022-08-04T04:39:02;23.88;61.54
66035;HTU21D;52805;51.074;5.842;2022-08-04T04:47:38;23.88;61.70
66035;HTU21D;52805;51.074;5.842;2022-08-04T04:52:48;23.95;61.78
66035;HTU21D;52805;51.074;5.842;2022-08-04T04:55:26;23.97;61.86
66035;HTU21D;52805;51.074;5.842;2022-08-04T04:57:57;24.00;61.80
66035;HTU21D;52805;51.074;5.842;2022-08-04T05:00:33;24.03;61.90
66035;HTU21D;52805;51.074;5.842;2022-08-04T05:03:43;24.06;61.84
66035;HTU21D;52805;51.074;5.842;2022-08-04T05:06:20;24.10;61.77
66035;HTU21D;52805;51.074;5.842;2022-08-04T05:09:09;24.16;61.86
66035;HTU21D;52805;51.074;5.842;2022-08-04T05:14:23;24.21;61.98
66035;HTU21D;52805;51.074;5.842;2022-08-04T05:17:14;24.26;61.90
66035;HTU21D;52805;51.074;5.842;2022-08-04T05:19:44;24.30;61.90
66035;HTU21D;52805;51.074;5.842;2022-08-04T05:22:34;24.33;61.75
66035;HTU21D;52805;51.074;5.842;2022-08-04T05:25:06;24.40;61.65
66035;HTU21D;52805;51.074;5.842;2022-08-04T05:27:39;24.43;61.62
66035;HTU21D;52805;51.074;5.842;2022-08-04T05:30:07;24.51;61.64
66035;HTU21D;52805;51.074;5.842;2022-08-04T05:32:53;24.59;61.49
66035;HTU21D;52805;51.074;5.842;2022-08-04T05:35:33;24.64;61.32
66035;HTU21D;52805;51.074;5.842;2022-08-04T05:38:03;24.72;61.22
66035;HTU21D;52805;51.074;5.842;2022-08-04T05:40:30;24.79;61.05
66035;HTU21D;52805;51.074;5.842;2022-08-04T05:42:57;24.87;60.98
66035;HTU21D;52805;51.074;5.842;2022-08-04T05:45:25;24.93;60.93
66035;HTU21D;52805;51.074;5.842;2022-08-04T05:47:52;25.01;60.64
66035;HTU21D;52805;51.074;5.842;2022-08-04T05:50:18;25.13;60.31
66035;HTU21D;52805;51.074;5.842;2022-08-04T05:52:46;25.22;59.97
66035;HTU21D;52805;51.074;5.842;2022-08-04T05:55:15;25.33;59.51
66035;HTU21D;52805;51.074;5.842;2022-08-04T05:57:42;25.44;59.10
66035;HTU21D;52805;51.074;5.842;2022-08-04T06:00:10;25.53;58.68
66035;HTU21D;52805;51.074;5.842;2022-08-04T06:02:38;25.60;58.30
66035;HTU21D;52805;51.074;5.842;2022-08-04T06:05:05;25.67;58.09
66035;HTU21D;52805;51.074;5.842;2022-08-04T06:07:32;25.75;57.96
66035;HTU21D;52805;51.074;5.842;2022-08-04T06:09:59;25.80;57.78
66035;HTU21D;52805;51.074;5.842;2022-08-04T06:12:37;25.83;58.19
66035;HTU21D;52805;51.074;5.842;2022-08-04T06:15:07;25.80;59.03
66035;HTU21D;52805;51.074;5.842;2022-08-04T06:17:39;25.78;58.93
66035;HTU21D;52805;51.074;5.842;2022-08-04T06:20:09;25.74;59.35
66035;HTU21D;52805;51.074;5.842;2022-08-04T06:22:40;25.73;59.75
66035;HTU21D;52805;51.074;5.842;2022-08-04T06:25:09;25.73;59.78
66035;HTU21D;52805;51.074;5.842;2022-08-04T06:27:37;25.76;59.48
66035;HTU21D;52805;51.074;5.842;2022-08-04T06:30:04;25.81;58.80
66035;HTU21D;52805;51.074;5.842;2022-08-04T06:32:35;25.89;58.27
66035;HTU21D;52805;51.074;5.842;2022-08-04T06:35:14;25.94;57.88
66035;HTU21D;52805;51.074;5.842;2022-08-04T06:37:44;26.04;57.58
66035;HTU21D;52805;51.074;5.842;2022-08-04T06:40:15;26.13;57.35
66035;HTU21D;52805;51.074;5.842;2022-08-04T06:42:42;26.22;56.99
66035;HTU21D;52805;51.074;5.842;2022-08-04T06:45:11;26.34;56.61
66035;HTU21D;52805;51.074;5.842;2022-08-04T06:47:39;26.43;56.26
66035;HTU21D;52805;51.074;5.842;2022-08-04T06:50:07;26.57;55.82
66035;HTU21D;52805;51.074;5.842;2022-08-04T06:52:35;26.71;55.04
66035;HTU21D;52805;51.074;5.842;2022-08-04T06:55:02;26.78;54.26
66035;HTU21D;52805;51.074;5.842;2022-08-04T06:57:29;26.84;54.17
66035;HTU21D;52805;51.074;5.842;2022-08-04T07:00:08;26.97;53.88
66035;HTU21D;52805;51.074;5.842;2022-08-04T07:02:55;27.10;53.57
66035;HTU21D;52805;51.074;5.842;2022-08-04T07:05:22;27.22;53.10
66035;HTU21D;52805;51.074;5.842;2022-08-04T07:07:48;27.31;52.86
66035;HTU21D;52805;51.074;5.842;2022-08-04T07:10:16;27.42;52.73
66035;HTU21D;52805;51.074;5.842;2022-08-04T07:12:42;27.54;52.17
66035;HTU21D;52805;51.074;5.842;2022-08-04T07:15:10;27.58;52.04
66035;HTU21D;52805;51.074;5.842;2022-08-04T07:17:36;27.64;52.04
66035;HTU21D;52805;51.074;5.842;2022-08-04T07:20:04;27.70;51.98
66035;HTU21D;52805;51.074;5.842;2022-08-04T07:22:30;27.81;51.83
66035;HTU21D;52805;51.074;5.842;2022-08-04T07:24:57;27.86;51.60
66035;HTU21D;52805;51.074;5.842;2022-08-04T07:27:25;27.93;51.85
66035;HTU21D;52805;51.074;5.842;2022-08-04T07:29:51;28.04;51.56
66035;HTU21D;52805;51.074;5.842;2022-08-04T07:32:19;28.13;51.37
66035;HTU21D;52805;51.074;5.842;2022-08-04T07:34:48;28.19;51.34
66035;HTU21D;52805;51.074;5.842;2022-08-04T07:37:14;28.28;51.15
66035;HTU21D;52805;51.074;5.842;2022-08-04T07:39:40;28.37;51.01
66035;HTU21D;52805;51.074;5.842;2022-08-04T07:42:06;28.42;51.00
66035;HTU21D;52805;51.074;5.842;2022-08-04T07:44:34;28.47;50.77
66035;HTU21D;52805;51.074;5.842;2022-08-04T07:47:05;28.53;50.81
66035;HTU21D;52805;51.074;5.842;2022-08-04T07:49:31;28.61;50.59
66035;HTU21D;52805;51.074;5.842;2022-08-04T07:51:58;28.65;50.41
66035;HTU21D;52805;51.074;5.842;2022-08-04T07:54:24;28.70;50.17
66035;HTU21D;52805;51.074;5.842;2022-08-04T07:56:51;28.72;50.04
66035;HTU21D;52805;51.074;5.842;2022-08-04T07:59:18;28.77;49.89
66035;HTU21D;52805;51.074;5.842;2022-08-04T08:01:45;28.84;49.78
66035;HTU21D;52805;51.074;5.842;2022-08-04T08:04:12;28.90;49.56
66035;HTU21D;52805;51.074;5.842;2022-08-04T08:06:40;28.94;48.91
66035;HTU21D;52805;51.074;5.842;2022-08-04T08:09:12;28.98;48.41
66035;HTU21D;52805;51.074;5.842;2022-08-04T08:11:38;28.97;48.04
66035;HTU21D;52805;51.074;5.842;2022-08-04T08:14:04;28.95;48.23
66035;HTU21D;52805;51.074;5.842;2022-08-04T08:16:30;28.97;48.39
66035;HTU21D;52805;51.074;5.842;2022-08-04T08:18:59;28.98;48.31
66035;HTU21D;52805;51.074;5.842;2022-08-04T08:21:25;28.95;48.31
66035;HTU21D;52805;51.074;5.842;2022-08-04T08:23:52;28.99;48.05
66035;HTU21D;52805;51.074;5.842;2022-08-04T08:26:18;29.02;48.08
66035;HTU21D;52805;51.074;5.842;2022-08-04T08:28:44;29.12;47.90
66035;HTU21D;52805;51.074;5.842;2022-08-04T08:31:09;29.18;47.77
66035;HTU21D;52805;51.074;5.842;2022-08-04T08:33:36;29.29;47.55
66035;HTU21D;52805;51.074;5.842;2022-08-04T08:36:37;29.39;46.67
66035;HTU21D;52805;51.074;5.842;2022-08-04T08:39:31;29.44;46.76
66035;HTU21D;52805;51.074;5.842;2022-08-04T08:48:27;30.03;45.27
66035;HTU21D;52805;51.074;5.842;2022-08-04T08:51:21;30.17;44.85
66035;HTU21D;52805;51.074;5.842;2022-08-04T08:54:07;30.26;44.45
66035;HTU21D;52805;51.074;5.842;2022-08-04T08:56:57;30.30;44.58
66035;HTU21D;52805;51.074;5.842;2022-08-04T08:59:36;30.35;44.50
66035;HTU21D;52805;51.074;5.842;2022-08-04T09:05:14;30.54;44.42
66035;HTU21D;52805;51.074;5.842;2022-08-04T09:13:40;30.89;43.65
66035;HTU21D;52805;51.074;5.842;2022-08-04T09:16:11;31.05;43.19
66035;HTU21D;52805;51.074;5.842;2022-08-04T09:21:41;31.21;42.58
66035;HTU21D;52805;51.074;5.842;2022-08-04T09:24:25;31.27;42.76
66035;HTU21D;52805;51.074;5.842;2022-08-04T09:27:04;31.36;42.23
66035;HTU21D;52805;51.074;5.842;2022-08-04T09:29:40;31.41;41.98
66035;HTU21D;52805;51.074;5.842;2022-08-04T09:32:29;31.42;41.93
66035;HTU21D;52805;51.074;5.842;2022-08-04T09:35:18;31.46;41.32
66035;HTU21D;52805;51.074;5.842;2022-08-04T09:40:31;31.51;41.83
66035;HTU21D;52805;51.074;5.842;2022-08-04T09:46:09;31.57;41.84
66035;HTU21D;52805;51.074;5.842;2022-08-04T09:49:15;31.70;41.58
66035;HTU21D;52805;51.074;5.842;2022-08-04T10:00:07;31.65;41.90
66035;HTU21D;52805;51.074;5.842;2022-08-04T10:02:43;31.60;41.53
66035;HTU21D;52805;51.074;5.842;2022-08-04T10:05:15;31.55;41.62
66035;HTU21D;52805;51.074;5.842;2022-08-04T10:08:08;31.52;41.78
66035;HTU21D;52805;51.074;5.842;2022-08-04T10:14:04;31.33;43.08
66035;HTU21D;52805;51.074;5.842;2022-08-04T10:24:41;30.99;45.03
66035;HTU21D;52805;51.074;5.842;2022-08-04T10:27:26;30.86;45.53
66035;HTU21D;52805;51.074;5.842;2022-08-04T10:30:01;30.76;45.81
66035;HTU21D;52805;51.074;5.842;2022-08-04T10:35:13;30.68;46.54
66035;HTU21D;52805;51.074;5.842;2022-08-04T10:40:31;30.61;46.82
66035;HTU21D;52805;51.074;5.842;2022-08-04T10:45:57;30.39;46.89
66035;HTU21D;52805;51.074;5.842;2022-08-04T10:48:35;30.22;47.36
66035;HTU21D;52805;51.074;5.842;2022-08-04T10:51:20;30.09;47.50
66035;HTU21D;52805;51.074;5.842;2022-08-04T10:54:12;30.00;47.90
66035;HTU21D;52805;51.074;5.842;2022-08-04T10:56:43;29.97;47.79
66035;HTU21D;52805;51.074;5.842;2022-08-04T10:59:38;29.88;47.99
66035;HTU21D;52805;51.074;5.842;2022-08-04T11:02:26;29.87;47.99
66035;HTU21D;52805;51.074;5.842;2022-08-04T11:05:28;29.91;47.85
66035;HTU21D;52805;51.074;5.842;2022-08-04T11:08:01;29.98;47.68
66035;HTU21D;52805;51.074;5.842;2022-08-04T11:10:34;30.03;47.66
66035;HTU21D;52805;51.074;5.842;2022-08-04T11:13:09;30.13;47.52
66035;HTU21D;52805;51.074;5.842;2022-08-04T11:15:40;30.22;47.35
66035;HTU21D;52805;51.074;5.842;2022-08-04T11:18:15;30.34;47.27
66035;HTU21D;52805;51.074;5.842;2022-08-04T11:20:53;30.32;47.53
66035;HTU21D;52805;51.074;5.842;2022-08-04T11:23:27;30.20;47.70
66035;HTU21D;52805;51.074;5.842;2022-08-04T11:26:05;30.22;47.73
66035;HTU21D;52805;51.074;5.842;2022-08-04T11:28:49;30.30;47.65
66035;HTU21D;52805;51.074;5.842;2022-08-04T11:31:27;30.34;47.41
66035;HTU21D;52805;51.074;5.842;2022-08-04T11:34:20;30.41;47.10
66035;HTU21D;52805;51.074;5.842;2022-08-04T11:39:35;30.45;46.51
66035;HTU21D;52805;51.074;5.842;2022-08-04T11:42:22;30.48;46.50
66035;HTU21D;52805;51.074;5.842;2022-08-04T11:44:54;30.57;46.40
66035;HTU21D;52805;51.074;5.842;2022-08-04T11:47:28;30.69;46.18
66035;HTU21D;52805;51.074;5.842;2022-08-04T11:50:07;30.80;45.90
66035;HTU21D;52805;51.074;5.842;2022-08-04T11:52:37;30.86;45.67
66035;HTU21D;52805;51.074;5.842;2022-08-04T11:55:08;30.80;45.73
66035;HTU21D;52805;51.074;5.842;2022-08-04T11:57:36;30.80;45.61
66035;HTU21D;52805;51.074;5.842;2022-08-04T12:00:08;30.79;45.63
66035;HTU21D;52805;51.074;5.842;2022-08-04T12:05:19;30.92;45.63
66035;HTU21D;52805;51.074;5.842;2022-08-04T12:16:33;31.19;45.35
66035;HTU21D;52805;51.074;5.842;2022-08-04T12:19:03;31.24;45.29
66035;HTU21D;52805;51.074;5.842;2022-08-04T12:24:15;31.15;45.21
66035;HTU21D;52805;51.074;5.842;2022-08-04T12:29:40;31.13;45.61
66035;HTU21D;52805;51.074;5.842;2022-08-04T12:32:28;31.14;45.45
66035;HTU21D;52805;51.074;5.842;2022-08-04T12:38:01;31.22;45.32
66035;HTU21D;52805;51.074;5.842;2022-08-04T12:40:37;31.34;45.03
66035;HTU21D;52805;51.074;5.842;2022-08-04T12:45:57;31.53;44.57
66035;HTU21D;52805;51.074;5.842;2022-08-04T12:48:26;31.54;44.65
66035;HTU21D;52805;51.074;5.842;2022-08-04T12:50:55;31.60;44.38
66035;HTU21D;52805;51.074;5.842;2022-08-04T12:53:27;31.67;44.27
66035;HTU21D;52805;51.074;5.842;2022-08-04T12:55:56;31.69;44.39
66035;HTU21D;52805;51.074;5.842;2022-08-04T12:58:26;31.72;44.54
66035;HTU21D;52805;51.074;5.842;2022-08-04T13:00:57;31.75;44.58
66035;HTU21D;52805;51.074;5.842;2022-08-04T13:03:34;31.78;44.66
66035;HTU21D;52805;51.074;5.842;2022-08-04T13:06:02;31.85;44.60
66035;HTU21D;52805;51.074;5.842;2022-08-04T13:08:36;31.92;44.62
66035;HTU21D;52805;51.074;5.842;2022-08-04T13:11:03;32.07;44.53
66035;HTU21D;52805;51.074;5.842;2022-08-04T13:13:33;32.17;44.28
66035;HTU21D;52805;51.074;5.842;2022-08-04T13:16:07;32.18;44.16
66035;HTU21D;52805;51.074;5.842;2022-08-04T13:18:47;32.18;44.05
66035;HTU21D;52805;51.074;5.842;2022-08-04T13:21:19;32.15;43.95
66035;HTU21D;52805;51.074;5.842;2022-08-04T13:23:54;32.10;44.03
66035;HTU21D;52805;51.074;5.842;2022-08-04T13:26:21;32.09;44.10
66035;HTU21D;52805;51.074;5.842;2022-08-04T13:28:49;32.15;44.05
66035;HTU21D;52805;51.074;5.842;2022-08-04T13:31:22;32.12;44.00
66035;HTU21D;52805;51.074;5.842;2022-08-04T13:33:54;32.12;43.92
66035;HTU21D;52805;51.074;5.842;2022-08-04T13:36:29;32.04;43.74
66035;HTU21D;52805;51.074;5.842;2022-08-04T13:39:04;32.01;44.13
66035;HTU21D;52805;51.074;5.842;2022-08-04T13:41:34;32.01;44.21
66035;HTU21D;52805;51.074;5.842;2022-08-04T13:44:04;32.02;44.06
66035;HTU21D;52805;51.074;5.842;2022-08-04T13:46:43;31.99;44.08
66035;HTU21D;52805;51.074;5.842;2022-08-04T13:49:15;32.00;44.02
66035;HTU21D;52805;51.074;5.842;2022-08-04T13:51:59;32.01;43.87
66035;HTU21D;52805;51.074;5.842;2022-08-04T13:54:36;31.94;43.99
66035;HTU21D;52805;51.074;5.842;2022-08-04T13:57:10;31.84;44.16
66035;HTU21D;52805;51.074;5.842;2022-08-04T13:59:38;31.82;44.31
66035;HTU21D;52805;51.074;5.842;2022-08-04T14:02:08;31.75;44.35
66035;HTU21D;52805;51.074;5.842;2022-08-04T14:04:40;31.72;44.51
66035;HTU21D;52805;51.074;5.842;2022-08-04T14:07:13;31.73;44.63
66035;HTU21D;52805;51.074;5.842;2022-08-04T14:09:39;31.70;44.70
66035;HTU21D;52805;51.074;5.842;2022-08-04T14:12:10;31.59;46.03
66035;HTU21D;52805;51.074;5.842;2022-08-04T14:14:51;31.35;46.84
66035;HTU21D;52805;51.074;5.842;2022-08-04T14:17:22;31.12;48.64
66035;HTU21D;52805;51.074;5.842;2022-08-04T14:19:59;30.91;47.98
66035;HTU21D;52805;51.074;5.842;2022-08-04T14:27:51;30.60;48.74
66035;HTU21D;52805;51.074;5.842;2022-08-04T14:30:29;30.66;48.69
66035;HTU21D;52805;51.074;5.842;2022-08-04T14:35:27;30.72;48.47
66035;HTU21D;52805;51.074;5.842;2022-08-04T14:38:02;30.86;48.25
66035;HTU21D;52805;51.074;5.842;2022-08-04T14:40:37;30.98;47.86
66035;HTU21D;52805;51.074;5.842;2022-08-04T14:43:03;30.99;47.55
66035;HTU21D;52805;51.074;5.842;2022-08-04T14:45:32;30.94;47.80
66035;HTU21D;52805;51.074;5.842;2022-08-04T14:47:59;31.01;47.60
66035;HTU21D;52805;51.074;5.842;2022-08-04T14:50:51;31.01;47.35
66035;HTU21D;52805;51.074;5.842;2022-08-04T14:53:23;30.92;47.49
66035;HTU21D;52805;51.074;5.842;2022-08-04T14:55:59;30.87;47.65
66035;HTU21D;52805;51.074;5.842;2022-08-04T14:58:29;30.93;47.78
66035;HTU21D;52805;51.074;5.842;2022-08-04T15:00:59;31.12;47.59
66035;HTU21D;52805;51.074;5.842;2022-08-04T15:03:27;31.31;46.92
66035;HTU21D;52805;51.074;5.842;2022-08-04T15:05:55;31.39;46.86
66035;HTU21D;52805;51.074;5.842;2022-08-04T15:08:21;31.53;46.58
66035;HTU21D;52805;51.074;5.842;2022-08-04T15:10:47;31.50;46.51
66035;HTU21D;52805;51.074;5.842;2022-08-04T15:13:13;31.51;46.57
66035;HTU21D;52805;51.074;5.842;2022-08-04T15:15:41;31.65;46.61
66035;HTU21D;52805;51.074;5.842;2022-08-04T15:18:08;31.87;46.31
66035;HTU21D;52805;51.074;5.842;2022-08-04T15:20:34;32.04;45.90
66035;HTU21D;52805;51.074;5.842;2022-08-04T15:23:04;32.01;46.25
66035;HTU21D;52805;51.074;5.842;2022-08-04T15:25:42;31.94;46.25
66035;HTU21D;52805;51.074;5.842;2022-08-04T15:28:14;32.01;46.44
66035;HTU21D;52805;51.074;5.842;2022-08-04T15:30:44;32.26;46.17
66035;HTU21D;52805;51.074;5.842;2022-08-04T15:33:13;32.43;45.77
66035;HTU21D;52805;51.074;5.842;2022-08-04T15:35:45;32.53;45.58
66035;HTU21D;52805;51.074;5.842;2022-08-04T15:38:25;32.63;45.19
66035;HTU21D;52805;51.074;5.842;2022-08-04T15:40:55;32.67;45.20
66035;HTU21D;52805;51.074;5.842;2022-08-04T15:49:22;32.87;44.65
66035;HTU21D;52805;51.074;5.842;2022-08-04T15:52:03;32.96;44.13
66035;HTU21D;52805;51.074;5.842;2022-08-04T15:54:29;33.04;43.88
66035;HTU21D;52805;51.074;5.842;2022-08-04T15:56:56;33.08;43.60
66035;HTU21D;52805;51.074;5.842;2022-08-04T15:59:58;32.99;43.51
66035;HTU21D;52805;51.074;5.842;2022-08-04T16:07:59;32.68;44.35
66035;HTU21D;52805;51.074;5.842;2022-08-04T16:13:03;32.61;44.50
66035;HTU21D;52805;51.074;5.842;2022-08-04T16:15:48;32.67;44.13
66035;HTU21D;52805;51.074;5.842;2022-08-04T16:20:46;32.67;43.54
66035;HTU21D;52805;51.074;5.842;2022-08-04T16:26:01;32.57;43.57
66035;HTU21D;52805;51.074;5.842;2022-08-04T16:28:41;32.45;43.71
66035;HTU21D;52805;51.074;5.842;2022-08-04T16:31:11;32.31;43.90
66035;HTU21D;52805;51.074;5.842;2022-08-04T16:33:38;32.26;44.06
66035;HTU21D;52805;51.074;5.842;2022-08-04T16:36:06;32.30;43.00
66035;HTU21D;52805;51.074;5.842;2022-08-04T16:38:59;32.20;43.89
66035;HTU21D;52805;51.074;5.842;2022-08-04T16:41:45;32.16;43.99
66035;HTU21D;52805;51.074;5.842;2022-08-04T16:44:33;32.13;44.13
66035;HTU21D;52805;51.074;5.842;2022-08-04T16:47:02;32.24;44.03
66035;HTU21D;52805;51.074;5.842;2022-08-04T16:49:31;32.30;44.04
66035;HTU21D;52805;51.074;5.842;2022-08-04T16:52:05;32.27;43.99
66035;HTU21D;52805;51.074;5.842;2022-08-04T16:54:34;32.13;44.30
66035;HTU21D;52805;51.074;5.842;2022-08-04T16:57:09;32.10;44.33
66035;HTU21D;52805;51.074;5.842;2022-08-04T16:59:35;31.97;44.33
66035;HTU21D;52805;51.074;5.842;2022-08-04T17:02:01;31.86;44.21
66035;HTU21D;52805;51.074;5.842;2022-08-04T17:04:32;31.73;44.34
66035;HTU21D;52805;51.074;5.842;2022-08-04T17:07:03;31.74;44.38
66035;HTU21D;52805;51.074;5.842;2022-08-04T17:09:30;31.69;43.48
66035;HTU21D;52805;51.074;5.842;2022-08-04T17:11:57;31.66;44.24
66035;HTU21D;52805;51.074;5.842;2022-08-04T17:14:29;31.66;44.11
66035;HTU21D;52805;51.074;5.842;2022-08-04T17:16:58;31.68;44.02
66035;HTU21D;52805;51.074;5.842;2022-08-04T17:19:24;31.74;43.94
66035;HTU21D;52805;51.074;5.842;2022-08-04T17:21:51;31.76;43.91
66035;HTU21D;52805;51.074;5.842;2022-08-04T17:24:17;31.78;44.03
66035;HTU21D;52805;51.074;5.842;2022-08-04T17:26:45;31.79;44.15
66035;HTU21D;52805;51.074;5.842;2022-08-04T17:29:11;31.76;44.35
66035;HTU21D;52805;51.074;5.842;2022-08-04T17:31:38;31.76;44.42
66035;HTU21D;52805;51.074;5.842;2022-08-04T17:34:14;31.71;44.69
66035;HTU21D;52805;51.074;5.842;2022-08-04T17:36:41;31.70;45.15
66035;HTU21D;52805;51.074;5.842;2022-08-04T17:39:15;31.72;45.09
66035;HTU21D;52805;51.074;5.842;2022-08-04T17:41:46;31.67;45.53
66035;HTU21D;52805;51.074;5.842;2022-08-04T17:44:11;31.64;45.64
66035;HTU21D;52805;51.074;5.842;2022-08-04T17:46:39;31.55;45.93
66035;HTU21D;52805;51.074;5.842;2022-08-04T17:51:53;31.43;46.42
66035;HTU21D;52805;51.074;5.842;2022-08-04T17:54:30;31.39;46.57
66035;HTU21D;52805;51.074;5.842;2022-08-04T17:56:58;31.33;46.73
66035;HTU21D;52805;51.074;5.842;2022-08-04T17:59:40;31.30;47.04
66035;HTU21D;52805;51.074;5.842;2022-08-04T18:02:08;31.26;46.89
66035;HTU21D;52805;51.074;5.842;2022-08-04T18:07:14;31.10;47.21
66035;HTU21D;52805;51.074;5.842;2022-08-04T18:12:20;30.98;47.47
66035;HTU21D;52805;51.074;5.842;2022-08-04T18:14:51;30.96;47.50
66035;HTU21D;52805;51.074;5.842;2022-08-04T18:17:41;30.90;47.59
66035;HTU21D;52805;51.074;5.842;2022-08-04T18:20:10;30.82;47.75
66035;HTU21D;52805;51.074;5.842;2022-08-04T18:22:38;30.74;47.92
66035;HTU21D;52805;51.074;5.842;2022-08-04T18:25:10;30.71;48.01
66035;HTU21D;52805;51.074;5.842;2022-08-04T18:27:51;30.63;48.07
66035;HTU21D;52805;51.074;5.842;2022-08-04T18:30:19;30.52;48.34
66035;HTU21D;52805;51.074;5.842;2022-08-04T18:32:46;30.41;48.63
66035;HTU21D;52805;51.074;5.842;2022-08-04T18:35:11;30.37;48.83
66035;HTU21D;52805;51.074;5.842;2022-08-04T18:37:38;30.30;49.02
66035;HTU21D;52805;51.074;5.842;2022-08-04T18:40:06;30.23;49.22
66035;HTU21D;52805;51.074;5.842;2022-08-04T18:42:32;30.16;49.31
66035;HTU21D;52805;51.074;5.842;2022-08-04T18:44:58;30.05;49.56
66035;HTU21D;52805;51.074;5.842;2022-08-04T18:47:24;30.00;49.60
66035;HTU21D;52805;51.074;5.842;2022-08-04T18:49:54;29.92;49.66
66035;HTU21D;52805;51.074;5.842;2022-08-04T18:52:20;29.85;49.76
66035;HTU21D;52805;51.074;5.842;2022-08-04T18:54:46;29.81;49.87
66035;HTU21D;52805;51.074;5.842;2022-08-04T18:57:19;29.78;49.94
66035;HTU21D;52805;51.074;5.842;2022-08-04T18:59:44;29.64;50.15
66035;HTU21D;52805;51.074;5.842;2022-08-04T19:02:10;29.44;50.50
66035;HTU21D;52805;51.074;5.842;2022-08-04T19:04:36;29.31;50.76
66035;HTU21D;52805;51.074;5.842;2022-08-04T19:07:02;29.16;50.82
66035;HTU21D;52805;51.074;5.842;2022-08-04T19:09:28;29.04;50.95
66035;HTU21D;52805;51.074;5.842;2022-08-04T19:11:54;28.99;51.02
66035;HTU21D;52805;51.074;5.842;2022-08-04T19:14:19;28.90;51.14
66035;HTU21D;52805;51.074;5.842;2022-08-04T19:16:45;28.85;51.21
66035;HTU21D;52805;51.074;5.842;2022-08-04T19:19:13;28.78;51.33
66035;HTU21D;52805;51.074;5.842;2022-08-04T19:21:40;28.77;51.31
66035;HTU21D;52805;51.074;5.842;2022-08-04T19:24:06;28.74;51.33
66035;HTU21D;52805;51.074;5.842;2022-08-04T19:26:32;28.75;51.29
66035;HTU21D;52805;51.074;5.842;2022-08-04T19:28:57;28.70;51.33
66035;HTU21D;52805;51.074;5.842;2022-08-04T19:31:24;28.68;51.44
66035;HTU21D;52805;51.074;5.842;2022-08-04T19:33:49;28.68;51.45
66035;HTU21D;52805;51.074;5.842;2022-08-04T19:36:15;28.64;51.54
66035;HTU21D;52805;51.074;5.842;2022-08-04T19:38:41;28.63;51.55
66035;HTU21D;52805;51.074;5.842;2022-08-04T19:41:08;28.67;51.47
66035;HTU21D;52805;51.074;5.842;2022-08-04T19:43:34;28.69;51.53